sensor_id;sensor_type;location;lat;lon;timestamp;pressure;altitude;pressure_sealevel;temperature;humidity
46211;BME280;52144;48.040;-1.594;2023-03-18T00:02:22;100040.22;;;12.64;100.00
46211;BME280;52144;48.040;-1.594;2023-03-18T00:04:50;100047.50;;;12.62;100.00
46211;BME280;52144;48.040;-1.594;2023-03-18T00:07:18;100046.47;;;12.50;100.00
46211;BME280;52144;48.040;-1.594;2023-03-18T00:09:46;100042.22;;;12.60;100.00
46211;BME280;52144;48.040;-1.594;2023-03-18T00:12:15;100040.41;;;12.61;100.00
46211;BME280;52144;48.040;-1.594;2023-03-18T00:14:43;100044.59;;;12.65;100.00
46211;BME280;52144;48.040;-1.594;2023-03-18T00:17:11;100042.50;;;12.70;100.00
46211;BME280;52144;48.040;-1.594;2023-03-18T00:19:39;100033.56;;;12.57;100.00
46211;BME280;52144;48.040;-1.594;2023-03-18T00:22:07;100026.59;;;12.54;100.00
46211;BME280;52144;48.040;-1.594;2023-03-18T00:24:36;100036.41;;;12.12;100.00
46211;BME280;52144;48.040;-1.594;2023-03-18T00:27:04;100052.50;;;12.25;100.00
46211;BME280;52144;48.040;-1.594;2023-03-18T00:29:33;100040.25;;;12.35;100.00
46211;BME280;52144;48.040;-1.594;2023-03-18T00:32:01;100042.88;;;12.22;100.00
46211;BME280;52144;48.040;-1.594;2023-03-18T00:34:29;100037.59;;;12.35;100.00
46211;BME280;52144;48.040;-1.594;2023-03-18T00:36:57;100038.16;;;12.40;100.00
46211;BME280;52144;48.040;-1.594;2023-03-18T00:39:25;100035.16;;;12.18;100.00
46211;BME280;52144;48.040;-1.594;2023-03-18T00:41:55;100029.69;;;12.34;100.00
46211;BME280;52144;48.040;-1.594;2023-03-18T00:44:23;100030.00;;;12.15;100.00
46211;BME280;52144;48.040;-1.594;2023-03-18T00:46:53;100026.38;;;12.16;100.00
46211;BME280;52144;48.040;-1.594;2023-03-18T00:49:21;100022.75;;;12.17;100.00
46211;BME280;52144;48.040;-1.594;2023-03-18T00:51:49;100019.16;;;12.03;100.00
46211;BME280;52144;48.040;-1.594;2023-03-18T00:54:17;100013.97;;;12.15;100.00
46211;BME280;52144;48.040;-1.594;2023-03-18T00:56:46;100017.53;;;12.01;100.00
46211;BME280;52144;48.040;-1.594;2023-03-18T00:59:14;100014.66;;;12.04;100.00
46211;BME280;52144;48.040;-1.594;2023-03-18T01:01:41;100011.69;;;11.94;100.00
46211;BME280;52144;48.040;-1.594;2023-03-18T01:04:11;100007.84;;;11.70;100.00
46211;BME280;52144;48.040;-1.594;2023-03-18T01:06:38;100001.00;;;11.80;100.00
46211;BME280;52144;48.040;-1.594;2023-03-18T01:09:07;100007.38;;;11.63;100.00
46211;BME280;52144;48.040;-1.594;2023-03-18T01:11:37;99996.41;;;11.53;100.00
46211;BME280;52144;48.040;-1.594;2023-03-18T01:14:05;99996.41;;;11.68;100.00
46211;BME280;52144;48.040;-1.594;2023-03-18T01:16:32;99997.84;;;11.59;100.00
46211;BME280;52144;48.040;-1.594;2023-03-18T01:19:00;99994.09;;;11.33;100.00
46211;BME280;52144;48.040;-1.594;2023-03-18T01:21:31;99981.38;;;11.52;100.00
46211;BME280;52144;48.040;-1.594;2023-03-18T01:23:58;99978.88;;;11.63;100.00
46211;BME280;52144;48.040;-1.594;2023-03-18T01:26:27;99973.44;;;11.36;100.00
46211;BME280;52144;48.040;-1.594;2023-03-18T01:28:54;99975.34;;;11.34;100.00
46211;BME280;52144;48.040;-1.594;2023-03-18T01:31:22;99969.75;;;11.53;100.00
46211;BME280;52144;48.040;-1.594;2023-03-18T01:33:51;99962.09;;;11.33;100.00
46211;BME280;52144;48.040;-1.594;2023-03-18T01:36:19;99953.94;;;11.50;100.00
46211;BME280;52144;48.040;-1.594;2023-03-18T01:38:48;99952.50;;;11.59;100.00
46211;BME280;52144;48.040;-1.594;2023-03-18T01:41:16;99942.69;;;11.59;100.00
46211;BME280;52144;48.040;-1.594;2023-03-18T01:43:44;99934.28;;;11.51;100.00
46211;BME280;52144;48.040;-1.594;2023-03-18T01:46:37;99930.47;;;11.55;100.00
46211;BME280;52144;48.040;-1.594;2023-03-18T01:49:17;99928.41;;;11.60;100.00
46211;BME280;52144;48.040;-1.594;2023-03-18T01:51:51;99923.06;;;11.60;100.00
46211;BME280;52144;48.040;-1.594;2023-03-18T01:54:24;99929.03;;;11.78;100.00
46211;BME280;52144;48.040;-1.594;2023-03-18T01:56:53;99920.28;;;11.62;100.00
46211;BME280;52144;48.040;-1.594;2023-03-18T01:59:24;99926.09;;;11.69;100.00
46211;BME280;52144;48.040;-1.594;2023-03-18T02:01:58;99916.94;;;11.87;100.00
46211;BME280;52144;48.040;-1.594;2023-03-18T02:04:33;99918.56;;;11.61;100.00
46211;BME280;52144;48.040;-1.594;2023-03-18T02:07:02;99910.28;;;11.65;100.00
46211;BME280;52144;48.040;-1.594;2023-03-18T02:09:32;99918.47;;;11.77;100.00
46211;BME280;52144;48.040;-1.594;2023-03-18T02:12:00;99915.69;;;11.64;100.00
46211;BME280;52144;48.040;-1.594;2023-03-18T02:14:29;99923.50;;;11.81;100.00
46211;BME280;52144;48.040;-1.594;2023-03-18T02:17:00;99915.94;;;11.88;100.00
46211;BME280;52144;48.040;-1.594;2023-03-18T02:19:42;99917.22;;;11.68;100.00
46211;BME280;52144;48.040;-1.594;2023-03-18T02:22:21;99912.75;;;11.83;100.00
46211;BME280;52144;48.040;-1.594;2023-03-18T02:24:58;99903.75;;;11.84;100.00
46211;BME280;52144;48.040;-1.594;2023-03-18T02:27:31;99905.38;;;11.72;100.00
46211;BME280;52144;48.040;-1.594;2023-03-18T02:30:05;99912.25;;;11.76;100.00
46211;BME280;52144;48.040;-1.594;2023-03-18T02:32:34;99912.53;;;11.86;100.00
46211;BME280;52144;48.040;-1.594;2023-03-18T02:35:05;99900.16;;;11.85;100.00
46211;BME280;52144;48.040;-1.594;2023-03-18T02:37:34;99895.75;;;11.84;100.00
46211;BME280;52144;48.040;-1.594;2023-03-18T02:40:16;99889.47;;;11.85;100.00
46211;BME280;52144;48.040;-1.594;2023-03-18T02:42:46;99887.41;;;11.61;100.00
46211;BME280;52144;48.040;-1.594;2023-03-18T02:45:25;99879.75;;;11.70;100.00
46211;BME280;52144;48.040;-1.594;2023-03-18T02:47:58;99886.63;;;11.74;100.00
46211;BME280;52144;48.040;-1.594;2023-03-18T02:50:28;99876.03;;;11.72;100.00
46211;BME280;52144;48.040;-1.594;2023-03-18T02:52:58;99876.16;;;11.71;100.00
46211;BME280;52144;48.040;-1.594;2023-03-18T02:55:26;99868.53;;;11.64;100.00
46211;BME280;52144;48.040;-1.594;2023-03-18T02:57:55;99869.38;;;11.79;100.00
46211;BME280;52144;48.040;-1.594;2023-03-18T03:00:24;99871.19;;;11.93;100.00
46211;BME280;52144;48.040;-1.594;2023-03-18T03:02:52;99872.88;;;11.94;100.00
46211;BME280;52144;48.040;-1.594;2023-03-18T03:05:21;99874.22;;;11.87;100.00
46211;BME280;52144;48.040;-1.594;2023-03-18T03:07:49;99858.38;;;11.98;100.00
46211;BME280;52144;48.040;-1.594;2023-03-18T03:10:17;99859.34;;;11.83;100.00
46211;BME280;52144;48.040;-1.594;2023-03-18T03:12:45;99849.16;;;11.90;100.00
46211;BME280;52144;48.040;-1.594;2023-03-18T03:15:14;99858.03;;;11.76;100.00
46211;BME280;52144;48.040;-1.594;2023-03-18T03:17:42;99856.59;;;11.84;100.00
46211;BME280;52144;48.040;-1.594;2023-03-18T03:20:10;99862.78;;;11.85;100.00
46211;BME280;52144;48.040;-1.594;2023-03-18T03:22:39;99863.06;;;11.80;100.00
46211;BME280;52144;48.040;-1.594;2023-03-18T03:25:08;99853.81;;;11.86;100.00
46211;BME280;52144;48.040;-1.594;2023-03-18T03:27:36;99872.88;;;11.94;100.00
46211;BME280;52144;48.040;-1.594;2023-03-18T03:30:06;99874.59;;;11.95;100.00
46211;BME280;52144;48.040;-1.594;2023-03-18T03:32:36;99883.91;;;11.88;100.00
46211;BME280;52144;48.040;-1.594;2023-03-18T03:35:05;99880.88;;;11.94;100.00
46211;BME280;52144;48.040;-1.594;2023-03-18T03:37:33;99888.81;;;12.23;100.00
46211;BME280;52144;48.040;-1.594;2023-03-18T03:40:01;99897.22;;;12.17;100.00
46211;BME280;52144;48.040;-1.594;2023-03-18T03:42:31;99897.03;;;11.93;100.00
46211;BME280;52144;48.040;-1.594;2023-03-18T03:44:59;99899.31;;;11.84;100.00
46211;BME280;52144;48.040;-1.594;2023-03-18T03:47:27;99896.34;;;11.89;100.00
46211;BME280;52144;48.040;-1.594;2023-03-18T03:49:56;99908.91;;;12.01;100.00
46211;BME280;52144;48.040;-1.594;2023-03-18T03:52:24;99903.84;;;12.11;100.00
46211;BME280;52144;48.040;-1.594;2023-03-18T03:54:52;99919.34;;;12.19;100.00
46211;BME280;52144;48.040;-1.594;2023-03-18T03:57:22;99918.00;;;12.26;100.00
46211;BME280;52144;48.040;-1.594;2023-03-18T03:59:50;99922.50;;;12.26;100.00
46211;BME280;52144;48.040;-1.594;2023-03-18T04:02:18;99920.50;;;12.15;100.00
46211;BME280;52144;48.040;-1.594;2023-03-18T04:04:49;99924.03;;;12.42;100.00
46211;BME280;52144;48.040;-1.594;2023-03-18T04:07:19;99925.38;;;12.35;100.00
46211;BME280;52144;48.040;-1.594;2023-03-18T04:09:47;99924.69;;;12.19;100.00
46211;BME280;52144;48.040;-1.594;2023-03-18T04:12:15;99932.59;;;12.20;100.00
46211;BME280;52144;48.040;-1.594;2023-03-18T04:14:46;99935.88;;;12.38;100.00
46211;BME280;52144;48.040;-1.594;2023-03-18T04:17:17;99928.06;;;12.08;100.00
46211;BME280;52144;48.040;-1.594;2023-03-18T04:19:44;99935.66;;;12.41;100.00
46211;BME280;52144;48.040;-1.594;2023-03-18T04:22:12;99934.50;;;12.45;100.00
46211;BME280;52144;48.040;-1.594;2023-03-18T04:24:42;99940.22;;;12.54;100.00
46211;BME280;52144;48.040;-1.594;2023-03-18T04:27:12;99943.41;;;12.46;100.00
46211;BME280;52144;48.040;-1.594;2023-03-18T04:29:40;99939.47;;;12.52;100.00
46211;BME280;52144;48.040;-1.594;2023-03-18T04:32:08;99944.66;;;12.40;100.00
46211;BME280;52144;48.040;-1.594;2023-03-18T04:34:35;99940.69;;;12.60;100.00
46211;BME280;52144;48.040;-1.594;2023-03-18T04:37:04;99947.44;;;12.66;100.00
46211;BME280;52144;48.040;-1.594;2023-03-18T04:39:31;99950.72;;;12.70;100.00
46211;BME280;52144;48.040;-1.594;2023-03-18T04:42:00;99943.47;;;12.72;100.00
46211;BME280;52144;48.040;-1.594;2023-03-18T04:44:28;99949.00;;;12.56;100.00
46211;BME280;52144;48.040;-1.594;2023-03-18T04:46:56;99950.63;;;12.71;100.00
46211;BME280;52144;48.040;-1.594;2023-03-18T04:49:24;99958.06;;;12.80;100.00
46211;BME280;52144;48.040;-1.594;2023-03-18T04:51:52;99949.94;;;12.55;100.00
46211;BME280;52144;48.040;-1.594;2023-03-18T04:54:20;99952.47;;;12.71;100.00
46211;BME280;52144;48.040;-1.594;2023-03-18T04:56:48;99951.50;;;12.44;100.00
46211;BME280;52144;48.040;-1.594;2023-03-18T04:59:17;99963.16;;;12.71;100.00
46211;BME280;52144;48.040;-1.594;2023-03-18T05:01:45;99951.81;;;12.67;100.00
46211;BME280;52144;48.040;-1.594;2023-03-18T05:04:12;99951.38;;;12.60;100.00
46211;BME280;52144;48.040;-1.594;2023-03-18T05:06:40;99949.69;;;12.45;100.00
46211;BME280;52144;48.040;-1.594;2023-03-18T05:09:08;99946.88;;;12.61;100.00
46211;BME280;52144;48.040;-1.594;2023-03-18T05:11:38;99949.41;;;12.50;100.00
46211;BME280;52144;48.040;-1.594;2023-03-18T05:14:05;99951.81;;;12.67;100.00
46211;BME280;52144;48.040;-1.594;2023-03-18T05:16:35;99950.09;;;12.66;100.00
46211;BME280;52144;48.040;-1.594;2023-03-18T05:19:03;99949.00;;;12.56;100.00
46211;BME280;52144;48.040;-1.594;2023-03-18T05:21:32;99954.03;;;12.33;100.00
46211;BME280;52144;48.040;-1.594;2023-03-18T05:23:59;99958.13;;;12.39;100.00
46211;BME280;52144;48.040;-1.594;2023-03-18T05:26:27;99963.72;;;12.49;100.00
46211;BME280;52144;48.040;-1.594;2023-03-18T05:28:56;99958.47;;;12.20;100.00
46211;BME280;52144;48.040;-1.594;2023-03-18T05:31:24;99959.84;;;12.40;100.00
46211;BME280;52144;48.040;-1.594;2023-03-18T05:33:53;99960.09;;;12.50;100.00
46211;BME280;52144;48.040;-1.594;2023-03-18T05:36:21;99961.13;;;12.47;100.00
46211;BME280;52144;48.040;-1.594;2023-03-18T05:38:49;99962.38;;;12.41;100.00
46211;BME280;52144;48.040;-1.594;2023-03-18T05:41:17;99965.19;;;12.40;100.00
46211;BME280;52144;48.040;-1.594;2023-03-18T05:43:45;99964.88;;;12.44;100.00
46211;BME280;52144;48.040;-1.594;2023-03-18T05:46:14;99963.38;;;12.40;100.00
46211;BME280;52144;48.040;-1.594;2023-03-18T05:48:42;99968.13;;;12.50;100.00
46211;BME280;52144;48.040;-1.594;2023-03-18T05:51:11;99965.28;;;12.38;100.00
46211;BME280;52144;48.040;-1.594;2023-03-18T05:53:39;99972.31;;;12.54;100.00
46211;BME280;52144;48.040;-1.594;2023-03-18T05:56:07;99967.59;;;12.57;100.00
46211;BME280;52144;48.040;-1.594;2023-03-18T05:58:34;99966.56;;;12.60;100.00
46211;BME280;52144;48.040;-1.594;2023-03-18T06:01:03;99963.88;;;12.60;100.00
46211;BME280;52144;48.040;-1.594;2023-03-18T06:03:32;99965.97;;;12.55;100.00
46211;BME280;52144;48.040;-1.594;2023-03-18T06:06:01;99963.91;;;12.45;100.00
46211;BME280;52144;48.040;-1.594;2023-03-18T06:08:30;99966.28;;;12.50;100.00
46211;BME280;52144;48.040;-1.594;2023-03-18T06:10:58;99965.22;;;12.53;100.00
46211;BME280;52144;48.040;-1.594;2023-03-18T06:13:26;99963.28;;;12.42;100.00
46211;BME280;52144;48.040;-1.594;2023-03-18T06:15:58;99969.63;;;12.54;100.00
46211;BME280;52144;48.040;-1.594;2023-03-18T06:18:26;99971.31;;;12.55;100.00
46211;BME280;52144;48.040;-1.594;2023-03-18T06:20:54;99969.50;;;12.55;100.00
46211;BME280;52144;48.040;-1.594;2023-03-18T06:23:22;99969.72;;;12.52;100.00
46211;BME280;52144;48.040;-1.594;2023-03-18T06:25:52;99985.34;;;12.58;100.00
46211;BME280;52144;48.040;-1.594;2023-03-18T06:28:19;99982.31;;;12.50;100.00
46211;BME280;52144;48.040;-1.594;2023-03-18T06:30:47;99980.19;;;12.55;100.00
46211;BME280;52144;48.040;-1.594;2023-03-18T06:33:15;99983.22;;;12.36;100.00
46211;BME280;52144;48.040;-1.594;2023-03-18T06:35:43;99976.53;;;12.29;100.00
46211;BME280;52144;48.040;-1.594;2023-03-18T06:38:11;99977.69;;;12.25;100.00
46211;BME280;52144;48.040;-1.594;2023-03-18T06:40:39;99979.03;;;12.32;100.00
46211;BME280;52144;48.040;-1.594;2023-03-18T06:43:09;99981.31;;;12.38;100.00
46211;BME280;52144;48.040;-1.594;2023-03-18T06:45:38;99986.06;;;12.48;100.00
46211;BME280;52144;48.040;-1.594;2023-03-18T06:48:06;99996.19;;;12.42;100.00
46211;BME280;52144;48.040;-1.594;2023-03-18T06:50:35;99989.34;;;12.24;100.00
46211;BME280;52144;48.040;-1.594;2023-03-18T06:53:05;99991.41;;;12.33;100.00
46211;BME280;52144;48.040;-1.594;2023-03-18T06:55:32;100002.47;;;12.41;100.00
46211;BME280;52144;48.040;-1.594;2023-03-18T06:58:01;100001.34;;;12.31;100.00
46211;BME280;52144;48.040;-1.594;2023-03-18T07:00:30;99993.16;;;12.34;100.00
46211;BME280;52144;48.040;-1.594;2023-03-18T07:02:59;100008.56;;;12.43;100.00
46211;BME280;52144;48.040;-1.594;2023-03-18T07:05:27;100007.84;;;12.27;100.00
46211;BME280;52144;48.040;-1.594;2023-03-18T07:07:56;100011.41;;;12.13;100.00
46211;BME280;52144;48.040;-1.594;2023-03-18T07:10:26;100020.72;;;12.35;100.00
46211;BME280;52144;48.040;-1.594;2023-03-18T07:12:55;100013.06;;;12.43;100.00
46211;BME280;52144;48.040;-1.594;2023-03-18T07:15:23;100013.50;;;12.08;100.00
46211;BME280;52144;48.040;-1.594;2023-03-18T07:17:53;100009.75;;;12.25;100.00
46211;BME280;52144;48.040;-1.594;2023-03-18T07:20:21;100014.78;;;12.44;100.00
46211;BME280;52144;48.040;-1.594;2023-03-18T07:22:49;100018.72;;;12.38;100.00
46211;BME280;52144;48.040;-1.594;2023-03-18T07:25:18;100021.78;;;12.32;100.00
46211;BME280;52144;48.040;-1.594;2023-03-18T07:27:48;100028.25;;;12.42;100.00
46211;BME280;52144;48.040;-1.594;2023-03-18T07:30:16;100027.66;;;12.37;100.00
46211;BME280;52144;48.040;-1.594;2023-03-18T07:32:44;100025.00;;;12.52;100.00
46211;BME280;52144;48.040;-1.594;2023-03-18T07:35:14;100036.72;;;12.49;100.00
46211;BME280;52144;48.040;-1.594;2023-03-18T07:37:42;100033.78;;;12.25;100.00
46211;BME280;52144;48.040;-1.594;2023-03-18T07:40:11;100038.66;;;12.33;100.00
46211;BME280;52144;48.040;-1.594;2023-03-18T07:42:39;100042.81;;;12.51;100.00
46211;BME280;52144;48.040;-1.594;2023-03-18T07:45:08;100057.38;;;12.74;100.00
46211;BME280;52144;48.040;-1.594;2023-03-18T07:47:36;100049.25;;;12.34;100.00
46211;BME280;52144;48.040;-1.594;2023-03-18T07:50:06;100052.63;;;12.65;100.00
46211;BME280;52144;48.040;-1.594;2023-03-18T07:52:35;100065.53;;;12.85;100.00
46211;BME280;52144;48.040;-1.594;2023-03-18T07:55:04;100061.34;;;12.81;100.00
46211;BME280;52144;48.040;-1.594;2023-03-18T07:57:32;100068.09;;;12.60;100.00
46211;BME280;52144;48.040;-1.594;2023-03-18T07:59:59;100063.47;;;12.76;100.00
46211;BME280;52144;48.040;-1.594;2023-03-18T08:02:27;100067.44;;;12.83;100.00
46211;BME280;52144;48.040;-1.594;2023-03-18T08:04:55;100078.28;;;12.68;100.00
46211;BME280;52144;48.040;-1.594;2023-03-18T08:07:23;100079.84;;;12.57;100.00
46211;BME280;52144;48.040;-1.594;2023-03-18T08:09:52;100079.38;;;12.51;100.00
46211;BME280;52144;48.040;-1.594;2023-03-18T08:12:20;100084.94;;;12.48;100.00
46211;BME280;52144;48.040;-1.594;2023-03-18T08:14:48;100089.53;;;12.73;100.00
46211;BME280;52144;48.040;-1.594;2023-03-18T08:17:16;100094.53;;;12.64;100.00
46211;BME280;52144;48.040;-1.594;2023-03-18T08:19:44;100090.97;;;12.78;100.00
46211;BME280;52144;48.040;-1.594;2023-03-18T08:22:12;100094.22;;;12.69;100.00
46211;BME280;52144;48.040;-1.594;2023-03-18T08:24:40;100106.25;;;12.76;100.00
46211;BME280;52144;48.040;-1.594;2023-03-18T08:27:12;100108.44;;;13.11;100.00
46211;BME280;52144;48.040;-1.594;2023-03-18T08:29:40;100103.91;;;12.99;100.00
46211;BME280;52144;48.040;-1.594;2023-03-18T08:32:08;100112.00;;;13.24;100.00
46211;BME280;52144;48.040;-1.594;2023-03-18T08:34:37;100112.59;;;13.30;100.00
46211;BME280;52144;48.040;-1.594;2023-03-18T08:37:04;100108.56;;;12.95;100.00
46211;BME280;52144;48.040;-1.594;2023-03-18T08:39:32;100107.81;;;12.93;100.00
46211;BME280;52144;48.040;-1.594;2023-03-18T08:42:01;100114.31;;;13.16;100.00
46211;BME280;52144;48.040;-1.594;2023-03-18T08:44:31;100121.41;;;13.17;100.00
46211;BME280;52144;48.040;-1.594;2023-03-18T08:46:58;100120.78;;;12.72;100.00
46211;BME280;52144;48.040;-1.594;2023-03-18T08:49:26;100121.53;;;13.01;100.00
46211;BME280;52144;48.040;-1.594;2023-03-18T08:51:54;100131.88;;;13.20;100.00
46211;BME280;52144;48.040;-1.594;2023-03-18T08:54:22;100131.72;;;12.82;100.00
46211;BME280;52144;48.040;-1.594;2023-03-18T08:56:50;100128.09;;;13.10;100.00
46211;BME280;52144;48.040;-1.594;2023-03-18T08:59:20;100132.00;;;13.46;100.00
46211;BME280;52144;48.040;-1.594;2023-03-18T09:01:49;100144.13;;;13.52;100.00
46211;BME280;52144;48.040;-1.594;2023-03-18T09:04:18;100142.22;;;13.12;100.00
46211;BME280;52144;48.040;-1.594;2023-03-18T09:06:47;100142.16;;;13.41;100.00
46211;BME280;52144;48.040;-1.594;2023-03-18T09:09:15;100150.88;;;13.57;100.00
46211;BME280;52144;48.040;-1.594;2023-03-18T09:11:43;100147.81;;;13.89;100.00
46211;BME280;52144;48.040;-1.594;2023-03-18T09:14:13;100141.19;;;14.08;100.00
46211;BME280;52144;48.040;-1.594;2023-03-18T09:16:41;100143.78;;;13.96;100.00
46211;BME280;52144;48.040;-1.594;2023-03-18T09:19:10;100147.91;;;13.62;100.00
46211;BME280;52144;48.040;-1.594;2023-03-18T09:21:38;100148.16;;;13.84;100.00
46211;BME280;52144;48.040;-1.594;2023-03-18T09:24:06;100147.50;;;13.94;100.00
46211;BME280;52144;48.040;-1.594;2023-03-18T09:26:34;100151.34;;;13.77;100.00
46211;BME280;52144;48.040;-1.594;2023-03-18T09:29:02;100147.53;;;14.07;100.00
46211;BME280;52144;48.040;-1.594;2023-03-18T09:31:30;100152.56;;;13.98;100.00
46211;BME280;52144;48.040;-1.594;2023-03-18T09:33:58;100159.94;;;14.08;100.00
46211;BME280;52144;48.040;-1.594;2023-03-18T09:36:27;100159.00;;;14.21;100.00
46211;BME280;52144;48.040;-1.594;2023-03-18T09:38:55;100159.31;;;14.17;100.00
46211;BME280;52144;48.040;-1.594;2023-03-18T09:41:29;100161.63;;;13.83;100.00
46211;BME280;52144;48.040;-1.594;2023-03-18T09:44:08;100165.44;;;14.19;100.00
46211;BME280;52144;48.040;-1.594;2023-03-18T09:46:48;100164.13;;;14.37;100.00
46211;BME280;52144;48.040;-1.594;2023-03-18T09:52:17;100175.16;;;14.71;100.00
46211;BME280;52144;48.040;-1.594;2023-03-18T09:54:52;100171.28;;;14.75;100.00
46211;BME280;52144;48.040;-1.594;2023-03-18T09:57:25;100180.38;;;14.85;100.00
46211;BME280;52144;48.040;-1.594;2023-03-18T09:59:58;100174.06;;;14.87;100.00
46211;BME280;52144;48.040;-1.594;2023-03-18T10:02:34;100179.88;;;14.55;100.00
46211;BME280;52144;48.040;-1.594;2023-03-18T10:05:09;100179.88;;;14.55;100.00
46211;BME280;52144;48.040;-1.594;2023-03-18T10:07:41;100181.81;;;14.78;100.00
46211;BME280;52144;48.040;-1.594;2023-03-18T10:10:18;100186.88;;;14.70;100.00
46211;BME280;52144;48.040;-1.594;2023-03-18T10:12:51;100180.34;;;14.23;100.00
46211;BME280;52144;48.040;-1.594;2023-03-18T10:15:26;100189.97;;;14.51;100.00
46211;BME280;52144;48.040;-1.594;2023-03-18T10:18:03;100188.81;;;14.68;100.00
46211;BME280;52144;48.040;-1.594;2023-03-18T10:20:48;100188.47;;;14.73;100.00
46211;BME280;52144;48.040;-1.594;2023-03-18T10:23:28;100188.66;;;14.82;100.00
46211;BME280;52144;48.040;-1.594;2023-03-18T10:26:03;100185.00;;;14.83;100.00
46211;BME280;52144;48.040;-1.594;2023-03-18T10:28:56;100197.06;;;14.65;100.00
46211;BME280;52144;48.040;-1.594;2023-03-18T10:31:41;100195.25;;;14.66;100.00
46211;BME280;52144;48.040;-1.594;2023-03-18T10:34:16;100197.03;;;14.14;100.00
46211;BME280;52144;48.040;-1.594;2023-03-18T10:36:49;100198.63;;;14.55;100.00
46211;BME280;52144;48.040;-1.594;2023-03-18T10:39:23;100189.00;;;15.15;100.00
46211;BME280;52144;48.040;-1.594;2023-03-18T10:41:54;100192.22;;;15.68;100.00
46211;BME280;52144;48.040;-1.594;2023-03-18T10:44:26;100197.47;;;15.70;100.00
46211;BME280;52144;48.040;-1.594;2023-03-18T10:46:56;100196.53;;;15.10;100.00
46211;BME280;52144;48.040;-1.594;2023-03-18T10:49:29;100202.31;;;15.16;100.00
46211;BME280;52144;48.040;-1.594;2023-03-18T10:52:02;100209.53;;;15.03;100.00
46211;BME280;52144;48.040;-1.594;2023-03-18T10:54:37;100204.34;;;15.50;100.00
46211;BME280;52144;48.040;-1.594;2023-03-18T10:57:08;100200.78;;;15.73;100.00
46211;BME280;52144;48.040;-1.594;2023-03-18T10:59:39;100206.47;;;15.57;100.00
46211;BME280;52144;48.040;-1.594;2023-03-18T11:02:14;100202.41;;;15.76;100.00
46211;BME280;52144;48.040;-1.594;2023-03-18T11:04:47;100206.97;;;16.33;100.00
46211;BME280;52144;48.040;-1.594;2023-03-18T11:07:19;100202.28;;;15.53;100.00
46211;BME280;52144;48.040;-1.594;2023-03-18T11:09:50;100203.75;;;16.17;100.00
46211;BME280;52144;48.040;-1.594;2023-03-18T11:12:23;100203.28;;;16.34;100.00
46211;BME280;52144;48.040;-1.594;2023-03-18T11:14:51;100210.91;;;16.52;100.00
46211;BME280;52144;48.040;-1.594;2023-03-18T11:17:20;100202.94;;;16.50;100.00
46211;BME280;52144;48.040;-1.594;2023-03-18T11:19:59;100207.00;;;16.78;100.00
46211;BME280;52144;48.040;-1.594;2023-03-18T11:22:28;100201.97;;;16.51;100.00
46211;BME280;52144;48.040;-1.594;2023-03-18T11:25:04;100202.38;;;16.11;99.84
46211;BME280;52144;48.040;-1.594;2023-03-18T11:27:40;100201.06;;;16.28;98.87
46211;BME280;52144;48.040;-1.594;2023-03-18T11:30:15;100200.78;;;17.12;98.05
46211;BME280;52144;48.040;-1.594;2023-03-18T11:33:05;100207.47;;;17.29;93.06
46211;BME280;52144;48.040;-1.594;2023-03-18T11:35:43;100202.59;;;16.55;94.44
46211;BME280;52144;48.040;-1.594;2023-03-18T11:38:16;100209.06;;;16.63;96.66
46211;BME280;52144;48.040;-1.594;2023-03-18T11:40:46;100206.38;;;16.97;97.74
46211;BME280;52144;48.040;-1.594;2023-03-18T11:43:20;100213.47;;;16.64;98.34
46211;BME280;52144;48.040;-1.594;2023-03-18T11:45:51;100218.41;;;16.24;100.00
46211;BME280;52144;48.040;-1.594;2023-03-18T11:48:28;100221.25;;;15.87;100.00
46211;BME280;52144;48.040;-1.594;2023-03-18T11:51:18;100223.59;;;15.68;100.00
46211;BME280;52144;48.040;-1.594;2023-03-18T11:54:08;100225.28;;;15.44;100.00
46211;BME280;52144;48.040;-1.594;2023-03-18T11:56:42;100223.13;;;15.50;100.00
46211;BME280;52144;48.040;-1.594;2023-03-18T11:59:29;100217.19;;;15.57;100.00
46211;BME280;52144;48.040;-1.594;2023-03-18T12:02:11;100223.47;;;15.93;100.00
46211;BME280;52144;48.040;-1.594;2023-03-18T12:07:51;100223.38;;;16.75;100.00
46211;BME280;52144;48.040;-1.594;2023-03-18T12:10:30;100215.53;;;16.50;100.00
46211;BME280;52144;48.040;-1.594;2023-03-18T12:13:13;100213.81;;;15.67;100.00
46211;BME280;52144;48.040;-1.594;2023-03-18T12:15:45;100221.44;;;15.73;100.00
46211;BME280;52144;48.040;-1.594;2023-03-18T12:18:35;100225.28;;;15.20;100.00
46211;BME280;52144;48.040;-1.594;2023-03-18T12:21:21;100237.81;;;15.20;100.00
46211;BME280;52144;48.040;-1.594;2023-03-18T12:24:00;100241.09;;;15.12;100.00
46211;BME280;52144;48.040;-1.594;2023-03-18T12:26:39;100250.44;;;14.94;100.00
46211;BME280;52144;48.040;-1.594;2023-03-18T12:29:34;100259.34;;;14.81;100.00
46211;BME280;52144;48.040;-1.594;2023-03-18T12:32:17;100252.59;;;14.89;100.00
46211;BME280;52144;48.040;-1.594;2023-03-18T12:35:05;100247.75;;;15.43;100.00
46211;BME280;52144;48.040;-1.594;2023-03-18T12:37:47;100241.84;;;15.01;100.00
46211;BME280;52144;48.040;-1.594;2023-03-18T12:40:25;100239.41;;;14.85;100.00
46211;BME280;52144;48.040;-1.594;2023-03-18T12:43:16;100241.00;;;15.38;100.00
46211;BME280;52144;48.040;-1.594;2023-03-18T12:45:54;100242.13;;;15.71;100.00
46211;BME280;52144;48.040;-1.594;2023-03-18T12:48:29;100240.22;;;15.73;100.00
46211;BME280;52144;48.040;-1.594;2023-03-18T12:51:12;100237.66;;;15.47;100.00
46211;BME280;52144;48.040;-1.594;2023-03-18T12:53:43;100239.56;;;15.82;100.00
46211;BME280;52144;48.040;-1.594;2023-03-18T12:56:16;100239.19;;;15.87;100.00
46211;BME280;52144;48.040;-1.594;2023-03-18T12:58:48;100240.31;;;15.95;100.00
46211;BME280;52144;48.040;-1.594;2023-03-18T13:01:21;100238.22;;;16.23;100.00